sensor_id;sensor_type;location;lat;lon;timestamp;temperature;humidity
49441;DHT22;35317;51.978;6.296;2023-06-10T00:00:28;20.40;67.60
49441;DHT22;35317;51.978;6.296;2023-06-10T00:05:31;20.40;67.50
49441;DHT22;35317;51.978;6.296;2023-06-10T00:10:32;20.40;67.40
49441;DHT22;35317;51.978;6.296;2023-06-10T00:15:36;20.40;67.40
49441;DHT22;35317;51.978;6.296;2023-06-10T00:20:37;20.40;67.30
49441;DHT22;35317;51.978;6.296;2023-06-10T00:25:38;20.30;67.00
49441;DHT22;35317;51.978;6.296;2023-06-10T00:30:39;20.40;67.10
49441;DHT22;35317;51.978;6.296;2023-06-10T00:35:40;20.30;67.00
49441;DHT22;35317;51.978;6.296;2023-06-10T00:40:41;20.30;67.20
49441;DHT22;35317;51.978;6.296;2023-06-10T00:45:42;20.20;67.10
49441;DHT22;35317;51.978;6.296;2023-06-10T00:50:43;20.10;67.10
49441;DHT22;35317;51.978;6.296;2023-06-10T00:55:44;20.00;67.30
49441;DHT22;35317;51.978;6.296;2023-06-10T01:00:45;19.90;67.60
49441;DHT22;35317;51.978;6.296;2023-06-10T01:05:53;19.80;67.80
49441;DHT22;35317;51.978;6.296;2023-06-10T01:11:04;19.70;68.10
49441;DHT22;35317;51.978;6.296;2023-06-10T01:16:09;19.60;68.30
49441;DHT22;35317;51.978;6.296;2023-06-10T01:21:20;19.50;68.70
49441;DHT22;35317;51.978;6.296;2023-06-10T01:26:30;19.30;68.90
49441;DHT22;35317;51.978;6.296;2023-06-10T01:31:49;19.30;69.30
49441;DHT22;35317;51.978;6.296;2023-06-10T01:36:54;19.20;69.60
49441;DHT22;35317;51.978;6.296;2023-06-10T01:41:56;19.00;69.90
49441;DHT22;35317;51.978;6.296;2023-06-10T01:46:57;18.90;70.50
49441;DHT22;35317;51.978;6.296;2023-06-10T01:51:58;18.80;70.90
49441;DHT22;35317;51.978;6.296;2023-06-10T01:56:59;18.70;71.00
49441;DHT22;35317;51.978;6.296;2023-06-10T02:01:59;18.60;71.20
49441;DHT22;35317;51.978;6.296;2023-06-10T02:07:00;18.50;71.50
49441;DHT22;35317;51.978;6.296;2023-06-10T02:12:04;18.50;71.80
49441;DHT22;35317;51.978;6.296;2023-06-10T02:17:06;18.40;72.00
49441;DHT22;35317;51.978;6.296;2023-06-10T02:22:11;18.40;72.10
49441;DHT22;35317;51.978;6.296;2023-06-10T02:27:12;18.30;72.30
49441;DHT22;35317;51.978;6.296;2023-06-10T02:32:12;18.20;72.40
49441;DHT22;35317;51.978;6.296;2023-06-10T02:37:13;18.20;72.60
49441;DHT22;35317;51.978;6.296;2023-06-10T02:42:14;18.20;72.90
49441;DHT22;35317;51.978;6.296;2023-06-10T02:47:14;18.10;73.10
49441;DHT22;35317;51.978;6.296;2023-06-10T02:52:15;18.00;73.40
49441;DHT22;35317;51.978;6.296;2023-06-10T02:57:16;18.00;73.60
49441;DHT22;35317;51.978;6.296;2023-06-10T03:02:17;17.90;73.90
49441;DHT22;35317;51.978;6.296;2023-06-10T03:07:18;18.00;74.20
49441;DHT22;35317;51.978;6.296;2023-06-10T03:12:21;18.00;74.30
49441;DHT22;35317;51.978;6.296;2023-06-10T03:17:22;18.00;74.40
49441;DHT22;35317;51.978;6.296;2023-06-10T03:22:22;18.00;74.80
49441;DHT22;35317;51.978;6.296;2023-06-10T03:27:23;18.00;75.00
49441;DHT22;35317;51.978;6.296;2023-06-10T03:32:24;18.00;75.30
49441;DHT22;35317;51.978;6.296;2023-06-10T03:37:26;18.00;75.60
49441;DHT22;35317;51.978;6.296;2023-06-10T03:42:26;18.00;75.80
49441;DHT22;35317;51.978;6.296;2023-06-10T03:47:33;18.00;76.00
49441;DHT22;35317;51.978;6.296;2023-06-10T03:52:38;18.00;76.40
49441;DHT22;35317;51.978;6.296;2023-06-10T03:57:39;18.00;76.50
49441;DHT22;35317;51.978;6.296;2023-06-10T04:02:41;18.00;76.70
49441;DHT22;35317;51.978;6.296;2023-06-10T04:07:46;18.10;76.90
49441;DHT22;35317;51.978;6.296;2023-06-10T04:12:48;18.10;77.20
49441;DHT22;35317;51.978;6.296;2023-06-10T04:17:49;18.20;77.90
49441;DHT22;35317;51.978;6.296;2023-06-10T04:22:50;18.20;77.40
49441;DHT22;35317;51.978;6.296;2023-06-10T04:27:51;18.20;77.60
49441;DHT22;35317;51.978;6.296;2023-06-10T04:32:52;18.20;77.70
49441;DHT22;35317;51.978;6.296;2023-06-10T04:37:53;18.30;77.90
49441;DHT22;35317;51.978;6.296;2023-06-10T04:42:54;18.30;77.90
49441;DHT22;35317;51.978;6.296;2023-06-10T04:47:54;18.40;78.00
49441;DHT22;35317;51.978;6.296;2023-06-10T04:52:56;18.50;78.10
49441;DHT22;35317;51.978;6.296;2023-06-10T04:57:57;18.60;78.20
49441;DHT22;35317;51.978;6.296;2023-06-10T05:02:58;18.70;78.90
49441;DHT22;35317;51.978;6.296;2023-06-10T05:07:59;18.70;78.30
49441;DHT22;35317;51.978;6.296;2023-06-10T05:13:00;18.90;78.50
49441;DHT22;35317;51.978;6.296;2023-06-10T05:18:00;18.90;78.90
49441;DHT22;35317;51.978;6.296;2023-06-10T05:23:03;19.00;78.30
49441;DHT22;35317;51.978;6.296;2023-06-10T05:28:04;19.10;78.30
49441;DHT22;35317;51.978;6.296;2023-06-10T05:33:04;19.30;78.30
49441;DHT22;35317;51.978;6.296;2023-06-10T05:38:05;19.30;78.10
49441;DHT22;35317;51.978;6.296;2023-06-10T05:43:06;19.40;78.50
49441;DHT22;35317;51.978;6.296;2023-06-10T05:48:07;19.50;77.90
49441;DHT22;35317;51.978;6.296;2023-06-10T05:53:08;19.70;77.70
49441;DHT22;35317;51.978;6.296;2023-06-10T05:58:15;19.80;77.40
49441;DHT22;35317;51.978;6.296;2023-06-10T06:03:16;19.90;77.20
49441;DHT22;35317;51.978;6.296;2023-06-10T06:08:17;20.00;77.00
49441;DHT22;35317;51.978;6.296;2023-06-10T06:13:19;20.20;76.80
49441;DHT22;35317;51.978;6.296;2023-06-10T06:18:19;20.30;76.40
49441;DHT22;35317;51.978;6.296;2023-06-10T06:23:20;20.40;76.00
49441;DHT22;35317;51.978;6.296;2023-06-10T06:28:21;20.50;75.80
49441;DHT22;35317;51.978;6.296;2023-06-10T06:33:23;20.70;75.50
49441;DHT22;35317;51.978;6.296;2023-06-10T06:38:23;20.80;75.20
49441;DHT22;35317;51.978;6.296;2023-06-10T06:43:24;21.00;74.90
49441;DHT22;35317;51.978;6.296;2023-06-10T06:48:25;21.10;74.50
49441;DHT22;35317;51.978;6.296;2023-06-10T06:53:26;21.20;74.00
49441;DHT22;35317;51.978;6.296;2023-06-10T06:58:27;21.40;73.70
49441;DHT22;35317;51.978;6.296;2023-06-10T07:03:31;21.60;73.50
49441;DHT22;35317;51.978;6.296;2023-06-10T07:08:32;21.70;73.00
49441;DHT22;35317;51.978;6.296;2023-06-10T07:13:33;21.90;72.50
49441;DHT22;35317;51.978;6.296;2023-06-10T07:18:34;22.00;72.00
49441;DHT22;35317;51.978;6.296;2023-06-10T07:23:35;22.10;71.70
49441;DHT22;35317;51.978;6.296;2023-06-10T07:28:36;22.30;71.30
49441;DHT22;35317;51.978;6.296;2023-06-10T07:33:37;22.50;70.90
49441;DHT22;35317;51.978;6.296;2023-06-10T07:38:39;22.70;70.40
49441;DHT22;35317;51.978;6.296;2023-06-10T07:43:42;22.90;69.80
49441;DHT22;35317;51.978;6.296;2023-06-10T07:48:43;23.10;69.30
49441;DHT22;35317;51.978;6.296;2023-06-10T07:53:44;23.30;68.70
49441;DHT22;35317;51.978;6.296;2023-06-10T07:58:45;23.60;68.40
49441;DHT22;35317;51.978;6.296;2023-06-10T08:03:46;23.70;67.60
49441;DHT22;35317;51.978;6.296;2023-06-10T08:08:47;24.00;67.20
49441;DHT22;35317;51.978;6.296;2023-06-10T08:13:48;24.10;66.50
49441;DHT22;35317;51.978;6.296;2023-06-10T08:18:49;24.30;65.90
49441;DHT22;35317;51.978;6.296;2023-06-10T08:23:53;24.50;65.00
49441;DHT22;35317;51.978;6.296;2023-06-10T08:28:54;24.60;64.60
49441;DHT22;35317;51.978;6.296;2023-06-10T08:33:56;24.90;64.10
49441;DHT22;35317;51.978;6.296;2023-06-10T08:38:56;25.10;63.40
49441;DHT22;35317;51.978;6.296;2023-06-10T08:44:10;25.30;62.30
49441;DHT22;35317;51.978;6.296;2023-06-10T08:49:22;25.40;61.80
49441;DHT22;35317;51.978;6.296;2023-06-10T08:54:28;25.70;61.40
49441;DHT22;35317;51.978;6.296;2023-06-10T08:59:31;25.90;61.10
49441;DHT22;35317;51.978;6.296;2023-06-10T09:04:32;26.20;60.30
49441;DHT22;35317;51.978;6.296;2023-06-10T09:09:34;26.30;59.40
49441;DHT22;35317;51.978;6.296;2023-06-10T09:14:36;26.50;58.70
49441;DHT22;35317;51.978;6.296;2023-06-10T09:19:38;26.70;58.30
49441;DHT22;35317;51.978;6.296;2023-06-10T09:24:39;26.90;57.40
49441;DHT22;35317;51.978;6.296;2023-06-10T09:29:48;27.10;57.10
49441;DHT22;35317;51.978;6.296;2023-06-10T09:34:52;27.40;55.80
49441;DHT22;35317;51.978;6.296;2023-06-10T09:40:11;27.70;55.20
49441;DHT22;35317;51.978;6.296;2023-06-10T09:45:12;27.90;54.50
49441;DHT22;35317;51.978;6.296;2023-06-10T09:50:13;28.20;53.90
49441;DHT22;35317;51.978;6.296;2023-06-10T09:55:14;28.50;53.10
49441;DHT22;35317;51.978;6.296;2023-06-10T10:00:16;28.70;52.00
49441;DHT22;35317;51.978;6.296;2023-06-10T10:05:18;29.00;51.40
49441;DHT22;35317;51.978;6.296;2023-06-10T10:10:22;29.20;50.70
49441;DHT22;35317;51.978;6.296;2023-06-10T10:15:25;29.40;50.40
49441;DHT22;35317;51.978;6.296;2023-06-10T10:20:33;29.50;49.60
49441;DHT22;35317;51.978;6.296;2023-06-10T10:25:38;29.50;49.10
49441;DHT22;35317;51.978;6.296;2023-06-10T10:30:53;29.50;48.70
49441;DHT22;35317;51.978;6.296;2023-06-10T10:35:55;29.40;48.60
49441;DHT22;35317;51.978;6.296;2023-06-10T10:40:56;29.50;48.80
49441;DHT22;35317;51.978;6.296;2023-06-10T10:46:00;29.60;47.70
49441;DHT22;35317;51.978;6.296;2023-06-10T10:51:01;29.60;47.50
49441;DHT22;35317;51.978;6.296;2023-06-10T10:56:07;29.70;47.00
49441;DHT22;35317;51.978;6.296;2023-06-10T11:01:13;29.90;46.60
49441;DHT22;35317;51.978;6.296;2023-06-10T11:06:17;30.10;46.40
49441;DHT22;35317;51.978;6.296;2023-06-10T11:11:23;30.30;46.40
49441;DHT22;35317;51.978;6.296;2023-06-10T11:16:27;30.50;45.10
49441;DHT22;35317;51.978;6.296;2023-06-10T11:21:28;30.70;44.80
49441;DHT22;35317;51.978;6.296;2023-06-10T11:26:30;30.80;44.20
49441;DHT22;35317;51.978;6.296;2023-06-10T11:31:40;30.80;43.50
49441;DHT22;35317;51.978;6.296;2023-06-10T11:36:43;30.90;43.40
49441;DHT22;35317;51.978;6.296;2023-06-10T11:41:45;31.20;43.60
49441;DHT22;35317;51.978;6.296;2023-06-10T11:46:48;31.40;42.90
49441;DHT22;35317;51.978;6.296;2023-06-10T11:51:50;31.60;43.40
49441;DHT22;35317;51.978;6.296;2023-06-10T11:56:57;31.80;42.50
49441;DHT22;35317;51.978;6.296;2023-06-10T12:02:00;32.00;42.90
49441;DHT22;35317;51.978;6.296;2023-06-10T12:07:01;32.20;41.90
49441;DHT22;35317;51.978;6.296;2023-06-10T12:12:04;32.50;41.50
49441;DHT22;35317;51.978;6.296;2023-06-10T12:17:06;32.90;41.10
49441;DHT22;35317;51.978;6.296;2023-06-10T12:22:07;33.10;41.00
49441;DHT22;35317;51.978;6.296;2023-06-10T12:27:11;33.30;40.90
49441;DHT22;35317;51.978;6.296;2023-06-10T12:32:12;33.50;40.30
49441;DHT22;35317;51.978;6.296;2023-06-10T12:37:15;33.60;40.10
49441;DHT22;35317;51.978;6.296;2023-06-10T12:42:17;33.70;40.10
49441;DHT22;35317;51.978;6.296;2023-06-10T12:47:21;33.70;39.60
49441;DHT22;35317;51.978;6.296;2023-06-10T12:52:30;33.60;39.80
49441;DHT22;35317;51.978;6.296;2023-06-10T12:57:30;33.60;39.90
49441;DHT22;35317;51.978;6.296;2023-06-10T13:02:31;33.60;39.70
49441;DHT22;35317;51.978;6.296;2023-06-10T13:07:32;33.50;39.40
49441;DHT22;35317;51.978;6.296;2023-06-10T13:12:33;33.50;39.80
49441;DHT22;35317;51.978;6.296;2023-06-10T13:17:34;33.50;39.50
49441;DHT22;35317;51.978;6.296;2023-06-10T13:22:36;33.40;39.30
49441;DHT22;35317;51.978;6.296;2023-06-10T13:27:37;33.40;39.30
49441;DHT22;35317;51.978;6.296;2023-06-10T13:32:42;33.60;39.10
49441;DHT22;35317;51.978;6.296;2023-06-10T13:37:43;33.70;38.90
49441;DHT22;35317;51.978;6.296;2023-06-10T13:42:43;33.90;38.50
49441;DHT22;35317;51.978;6.296;2023-06-10T13:47:45;34.30;38.50
49441;DHT22;35317;51.978;6.296;2023-06-10T13:52:46;34.50;38.30
49441;DHT22;35317;51.978;6.296;2023-06-10T13:57:46;34.60;38.00
49441;DHT22;35317;51.978;6.296;2023-06-10T14:02:47;34.70;37.70
49441;DHT22;35317;51.978;6.296;2023-06-10T14:07:48;34.60;37.20
49441;DHT22;35317;51.978;6.296;2023-06-10T14:12:49;34.50;37.40
49441;DHT22;35317;51.978;6.296;2023-06-10T14:17:50;34.60;37.20
49441;DHT22;35317;51.978;6.296;2023-06-10T14:22:51;34.80;37.20
49441;DHT22;35317;51.978;6.296;2023-06-10T14:27:51;35.00;36.90
49441;DHT22;35317;51.978;6.296;2023-06-10T14:32:52;35.00;37.00
49441;DHT22;35317;51.978;6.296;2023-06-10T14:37:53;35.10;36.70
49441;DHT22;35317;51.978;6.296;2023-06-10T14:42:57;35.10;36.60
49441;DHT22;35317;51.978;6.296;2023-06-10T14:47:58;35.10;36.30
49441;DHT22;35317;51.978;6.296;2023-06-10T14:52:59;35.20;36.30
49441;DHT22;35317;51.978;6.296;2023-06-10T14:58:00;35.10;36.00
49441;DHT22;35317;51.978;6.296;2023-06-10T15:03:01;34.70;36.40
49441;DHT22;35317;51.978;6.296;2023-06-10T15:08:01;34.30;36.40
49441;DHT22;35317;51.978;6.296;2023-06-10T15:13:02;34.00;36.70
49441;DHT22;35317;51.978;6.296;2023-06-10T15:18:03;34.10;37.10
49441;DHT22;35317;51.978;6.296;2023-06-10T15:23:04;34.20;36.90
49441;DHT22;35317;51.978;6.296;2023-06-10T15:28:05;34.10;36.80
49441;DHT22;35317;51.978;6.296;2023-06-10T15:33:06;34.40;37.00
49441;DHT22;35317;51.978;6.296;2023-06-10T15:38:07;34.70;36.80
49441;DHT22;35317;51.978;6.296;2023-06-10T15:43:07;34.70;36.70
49441;DHT22;35317;51.978;6.296;2023-06-10T15:48:08;34.80;36.80
49441;DHT22;35317;51.978;6.296;2023-06-10T15:53:09;34.60;36.70
49441;DHT22;35317;51.978;6.296;2023-06-10T15:58:11;34.50;36.70
49441;DHT22;35317;51.978;6.296;2023-06-10T16:03:11;34.50;36.60
49441;DHT22;35317;51.978;6.296;2023-06-10T16:08:13;34.30;36.70
49441;DHT22;35317;51.978;6.296;2023-06-10T16:13:14;34.20;36.80
49441;DHT22;35317;51.978;6.296;2023-06-10T16:18:15;33.90;36.90
49441;DHT22;35317;51.978;6.296;2023-06-10T16:23:21;33.90;37.00
49441;DHT22;35317;51.978;6.296;2023-06-10T16:28:22;33.70;37.40
49441;DHT22;35317;51.978;6.296;2023-06-10T16:33:23;33.70;37.60
49441;DHT22;35317;51.978;6.296;2023-06-10T16:38:24;33.70;37.50
49441;DHT22;35317;51.978;6.296;2023-06-10T16:43:25;33.60;37.60
49441;DHT22;35317;51.978;6.296;2023-06-10T16:48:26;33.40;37.70
49441;DHT22;35317;51.978;6.296;2023-06-10T16:53:27;33.20;37.50
49441;DHT22;35317;51.978;6.296;2023-06-10T16:58:30;33.00;37.80
49441;DHT22;35317;51.978;6.296;2023-06-10T17:03:31;32.80;37.80
49441;DHT22;35317;51.978;6.296;2023-06-10T17:08:32;32.50;38.10
49441;DHT22;35317;51.978;6.296;2023-06-10T17:13:32;32.30;38.60
49441;DHT22;35317;51.978;6.296;2023-06-10T17:18:33;31.90;38.80
49441;DHT22;35317;51.978;6.296;2023-06-10T17:23:34;31.70;39.40
49441;DHT22;35317;51.978;6.296;2023-06-10T17:28:35;31.40;39.90
49441;DHT22;35317;51.978;6.296;2023-06-10T17:33:36;31.20;40.20
49441;DHT22;35317;51.978;6.296;2023-06-10T17:38:37;31.00;40.70
49441;DHT22;35317;51.978;6.296;2023-06-10T17:43:38;30.90;41.10
49441;DHT22;35317;51.978;6.296;2023-06-10T17:48:41;30.70;41.40
49441;DHT22;35317;51.978;6.296;2023-06-10T17:53:42;30.50;41.60
49441;DHT22;35317;51.978;6.296;2023-06-10T17:58:43;30.40;41.80
49441;DHT22;35317;51.978;6.296;2023-06-10T18:03:43;30.20;41.80
49441;DHT22;35317;51.978;6.296;2023-06-10T18:08:44;30.10;42.10
49441;DHT22;35317;51.978;6.296;2023-06-10T18:13:46;29.80;42.30
49441;DHT22;35317;51.978;6.296;2023-06-10T18:18:47;29.70;42.70
49441;DHT22;35317;51.978;6.296;2023-06-10T18:23:48;29.60;43.00
49441;DHT22;35317;51.978;6.296;2023-06-10T18:28:48;29.60;43.30
49441;DHT22;35317;51.978;6.296;2023-06-10T18:33:49;29.50;43.50
49441;DHT22;35317;51.978;6.296;2023-06-10T18:38:50;29.30;43.80
49441;DHT22;35317;51.978;6.296;2023-06-10T18:43:51;29.20;44.10
49441;DHT22;35317;51.978;6.296;2023-06-10T18:48:52;29.10;44.50
49441;DHT22;35317;51.978;6.296;2023-06-10T18:53:52;28.90;44.90
49441;DHT22;35317;51.978;6.296;2023-06-10T18:58:53;28.70;45.20
49441;DHT22;35317;51.978;6.296;2023-06-10T19:03:54;28.60;45.70
49441;DHT22;35317;51.978;6.296;2023-06-10T19:08:56;28.50;46.00
49441;DHT22;35317;51.978;6.296;2023-06-10T19:13:57;28.30;46.20
49441;DHT22;35317;51.978;6.296;2023-06-10T19:18:57;28.20;46.60
49441;DHT22;35317;51.978;6.296;2023-06-10T19:23:58;28.00;46.90
49441;DHT22;35317;51.978;6.296;2023-06-10T19:28:59;27.80;47.30
49441;DHT22;35317;51.978;6.296;2023-06-10T19:34:00;27.60;47.60
49441;DHT22;35317;51.978;6.296;2023-06-10T19:39:01;27.30;48.00
49441;DHT22;35317;51.978;6.296;2023-06-10T19:44:01;27.00;48.60
49441;DHT22;35317;51.978;6.296;2023-06-10T19:49:02;26.80;49.30
49441;DHT22;35317;51.978;6.296;2023-06-10T19:54:06;26.50;49.90
49441;DHT22;35317;51.978;6.296;2023-06-10T19:59:07;26.30;50.40
49441;DHT22;35317;51.978;6.296;2023-06-10T20:04:08;26.10;50.90
49441;DHT22;35317;51.978;6.296;2023-06-10T20:09:09;25.80;51.20
49441;DHT22;35317;51.978;6.296;2023-06-10T20:14:10;25.60;51.80
49441;DHT22;35317;51.978;6.296;2023-06-10T20:19:11;25.40;52.20
49441;DHT22;35317;51.978;6.296;2023-06-10T20:24:12;25.20;53.00
49441;DHT22;35317;51.978;6.296;2023-06-10T20:29:13;25.00;53.40
49441;DHT22;35317;51.978;6.296;2023-06-10T20:34:14;24.80;53.90
49441;DHT22;35317;51.978;6.296;2023-06-10T20:39:15;24.60;54.40
49441;DHT22;35317;51.978;6.296;2023-06-10T20:44:16;24.40;54.70
49441;DHT22;35317;51.978;6.296;2023-06-10T20:49:17;24.20;55.10
49441;DHT22;35317;51.978;6.296;2023-06-10T20:54:17;24.10;55.60
49441;DHT22;35317;51.978;6.296;2023-06-10T20:59:18;23.90;56.00
49441;DHT22;35317;51.978;6.296;2023-06-10T21:04:25;23.70;56.60
49441;DHT22;35317;51.978;6.296;2023-06-10T21:09:26;23.60;57.10
49441;DHT22;35317;51.978;6.296;2023-06-10T21:14:26;23.40;57.50
49441;DHT22;35317;51.978;6.296;2023-06-10T21:19:27;23.30;58.20
49441;DHT22;35317;51.978;6.296;2023-06-10T21:24:28;23.10;58.60
49441;DHT22;35317;51.978;6.296;2023-06-10T21:29:29;22.90;59.10
49441;DHT22;35317;51.978;6.296;2023-06-10T21:34:29;22.80;59.40
49441;DHT22;35317;51.978;6.296;2023-06-10T21:39:30;22.70;59.80
49441;DHT22;35317;51.978;6.296;2023-06-10T21:44:57;22.50;60.10
49441;DHT22;35317;51.978;6.296;2023-06-10T22:17:08;21.90;62.20
49441;DHT22;35317;51.978;6.296;2023-06-10T22:22:11;21.70;62.10
49441;DHT22;35317;51.978;6.296;2023-06-10T22:27:12;21.70;62.60
49441;DHT22;35317;51.978;6.296;2023-06-10T22:32:14;21.60;62.90
49441;DHT22;35317;51.978;6.296;2023-06-10T22:37:22;21.60;63.10
49441;DHT22;35317;51.978;6.296;2023-06-10T22:42:46;21.50;63.40
49441;DHT22;35317;51.978;6.296;2023-06-10T22:47:48;21.50;63.50
49441;DHT22;35317;51.978;6.296;2023-06-10T22:52:52;21.50;63.90
49441;DHT22;35317;51.978;6.296;2023-06-10T22:57:57;21.40;64.20
49441;DHT22;35317;51.978;6.296;2023-06-10T23:03:01;21.40;64.50
49441;DHT22;35317;51.978;6.296;2023-06-10T23:13:55;21.20;65.40
49441;DHT22;35317;51.978;6.296;2023-06-10T23:18:56;21.10;65.50
49441;DHT22;35317;51.978;6.296;2023-06-10T23:24:03;21.00;66.10
49441;DHT22;35317;51.978;6.296;2023-06-10T23:29:09;20.80;66.40
49441;DHT22;35317;51.978;6.296;2023-06-10T23:34:14;20.80;67.10
49441;DHT22;35317;51.978;6.296;2023-06-10T23:39:29;20.70;67.50
